Time;durP1;ratioP1;P1;durP2;ratioP2;P2;SDS_P1;SDS_P2;PMS_P1;PMS_P2;Temp;Humidity;BMP_temperature;BMP_pressure;BME280_temperature;BME280_humidity;BME280_pressure;Samples;Min_cycle;Max_cycle;Signal;HPM_P1;HPM_P2
2021/03/14 00:00:46;;;;;;;16.90;2.73;;;6.30;90.80;;;;;;5044677;28;20727;-74
2021/03/14 00:03:15;;;;;;;15.33;2.00;;;6.20;90.80;;;;;;5044278;28;20102;-78
2021/03/14 00:05:43;;;;;;;14.97;1.67;;;6.20;90.80;;;;;;5061636;28;20036;-78
2021/03/14 00:08:10;;;;;;;7.57;1.50;;;6.30;90.80;;;;;;5062144;28;20041;-77
2021/03/14 00:10:46;;;;;;;14.77;2.23;;;6.20;90.80;;;;;;5063298;28;20917;-78
2021/03/14 00:13:14;;;;;;;12.03;1.83;;;6.20;90.90;;;;;;5063162;28;20115;-78
2021/03/14 00:15:40;;;;;;;11.40;1.70;;;6.20;90.80;;;;;;5040478;28;20133;-78
2021/03/14 00:18:06;;;;;;;13.90;1.90;;;6.10;90.80;;;;;;5063139;28;20543;-77
2021/03/14 00:20:32;;;;;;;12.37;1.93;;;6.20;90.60;;;;;;5040491;28;20033;-78
2021/03/14 00:22:59;;;;;;;8.60;2.10;;;6.10;90.40;;;;;;5042021;28;20123;-78
2021/03/14 00:25:24;;;;;;;11.27;1.57;;;6.10;90.30;;;;;;5062752;28;20033;-77
2021/03/14 00:27:51;;;;;;;13.93;1.93;;;6.10;90.50;;;;;;5042318;28;20605;-77
2021/03/14 00:30:21;;;;;;;14.57;1.83;;;6.00;90.50;;;;;;5024298;28;20045;-78
2021/03/14 00:32:56;;;;;;;9.20;1.10;;;6.00;90.60;;;;;;5039143;28;20037;-77
2021/03/14 00:35:22;;;;;;;9.67;1.60;;;6.00;90.30;;;;;;5026525;28;20396;-78
2021/03/14 00:37:52;;;;;;;8.33;1.27;;;5.90;90.20;;;;;;5021253;28;20052;-79
2021/03/14 00:40:21;;;;;;;14.83;1.67;;;6.00;90.30;;;;;;5042306;28;20037;-78
2021/03/14 00:42:47;;;;;;;9.40;2.00;;;5.90;90.40;;;;;;5044448;28;20123;-78
2021/03/14 00:45:13;;;;;;;11.53;2.07;;;5.90;90.30;;;;;;5021292;28;20580;-77
2021/03/14 00:47:39;;;;;;;13.13;1.83;;;5.90;90.40;;;;;;5027512;28;20052;-78
2021/03/14 00:50:09;;;;;;;6.83;1.23;;;5.90;90.60;;;;;;5024092;28;20750;-78
2021/03/14 00:52:41;;;;;;;14.67;1.90;;;5.90;90.50;;;;;;5039610;28;20037;-77
2021/03/14 00:55:08;;;;;;;12.03;1.67;;;5.80;90.60;;;;;;5022622;28;20124;-79
2021/03/14 00:57:34;;;;;;;11.77;1.47;;;5.80;90.70;;;;;;5037603;28;20040;-78
2021/03/14 00:59:59;;;;;;;12.97;1.57;;;5.70;90.70;;;;;;5044329;28;20041;-78
2021/03/14 01:02:26;;;;;;;9.53;1.70;;;5.80;91.00;;;;;;5038982;28;20057;-78
2021/03/14 01:04:54;;;;;;;11.63;2.17;;;5.70;91.40;;;;;;5043030;28;20037;-78
2021/03/14 01:07:20;;;;;;;9.23;1.67;;;5.70;91.10;;;;;;5016751;28;21630;-77
2021/03/14 01:09:49;;;;;;;10.70;2.00;;;5.70;91.20;;;;;;5059946;28;20041;-78
2021/03/14 01:12:18;;;;;;;10.03;1.53;;;5.80;91.20;;;;;;5027568;28;20041;-77
2021/03/14 01:14:44;;;;;;;13.40;1.47;;;5.80;91.30;;;;;;5033579;28;20232;-78
2021/03/14 01:17:10;;;;;;;17.50;1.60;;;5.70;91.40;;;;;;5024355;28;21325;-77
2021/03/14 01:19:36;;;;;;;14.00;2.47;;;5.70;91.50;;;;;;5041355;28;20804;-78
2021/03/14 01:22:02;;;;;;;12.37;1.77;;;5.70;91.70;;;;;;5038671;28;20496;-78
2021/03/14 01:24:28;;;;;;;10.60;2.10;;;5.70;91.70;;;;;;5043516;28;20056;-78
2021/03/14 01:26:54;;;;;;;15.20;2.13;;;5.70;91.70;;;;;;5041720;28;20075;-78
2021/03/14 01:29:20;;;;;;;17.13;2.03;;;5.70;91.90;;;;;;5039099;28;20109;-78
2021/03/14 01:31:46;;;;;;;16.53;1.93;;;5.60;92.10;;;;;;5026948;28;20045;-78
2021/03/14 01:34:13;;;;;;;12.17;1.83;;;5.70;92.20;;;;;;5058307;28;20453;-78
2021/03/14 01:36:39;;;;;;;19.07;3.47;;;5.60;92.20;;;;;;5024814;28;20053;-78
2021/03/14 01:39:05;;;;;;;13.73;2.10;;;5.60;92.20;;;;;;5063033;28;20040;-78
2021/03/14 01:41:31;;;;;;;10.50;1.30;;;5.60;92.20;;;;;;5061063;28;20032;-77
2021/03/14 01:43:58;;;;;;;14.33;2.20;;;5.60;92.30;;;;;;5042861;28;20032;-77
2021/03/14 01:46:24;;;;;;;17.77;2.00;;;5.60;92.40;;;;;;5057204;28;20033;-77
2021/03/14 01:48:50;;;;;;;13.57;2.20;;;5.70;92.40;;;;;;5025932;28;20518;-78
2021/03/14 01:51:16;;;;;;;9.83;2.13;;;5.60;92.40;;;;;;5045259;28;20079;-77
2021/03/14 01:53:42;;;;;;;17.93;2.43;;;5.70;92.40;;;;;;5047061;28;20056;-78
2021/03/14 01:56:08;;;;;;;17.30;2.03;;;5.70;92.40;;;;;;5047559;28;20037;-77
2021/03/14 01:58:35;;;;;;;13.87;2.17;;;5.80;92.20;;;;;;5046972;28;20124;-77
2021/03/14 02:01:01;;;;;;;15.33;2.73;;;5.80;92.10;;;;;;5042249;28;20041;-78
2021/03/14 02:03:27;;;;;;;12.47;1.70;;;5.80;92.20;;;;;;5041620;28;20098;-78
2021/03/14 02:05:59;;;;;;;21.87;2.40;;;5.80;92.10;;;;;;5043502;28;20037;-77
2021/03/14 02:08:25;;;;;;;16.23;2.27;;;5.80;92.20;;;;;;5048968;28;20110;-78
2021/03/14 02:10:53;;;;;;;9.93;1.97;;;5.80;92.20;;;;;;5031116;28;20064;-78
2021/03/14 02:13:42;;;;;;;8.53;1.40;;;5.80;92.10;;;;;;5048133;28;20127;-79
2021/03/14 02:16:14;;;;;;;16.67;2.43;;;5.80;92.00;;;;;;5061467;28;20088;-77
2021/03/14 02:18:43;;;;;;;17.50;2.50;;;5.80;92.10;;;;;;5062685;28;20044;-78
2021/03/14 02:21:11;;;;;;;15.83;2.20;;;5.80;92.20;;;;;;5062156;28;20072;-78
2021/03/14 02:23:46;;;;;;;13.55;2.03;;;5.80;92.20;;;;;;5030148;28;20077;-78
2021/03/14 02:26:23;;;;;;;14.57;2.37;;;5.80;92.20;;;;;;5063280;28;20101;-78
2021/03/14 02:28:49;;;;;;;14.40;1.97;;;5.90;92.20;;;;;;5056420;28;20044;-78
2021/03/14 02:31:24;;;;;;;9.70;1.77;;;5.90;92.20;;;;;;5045768;28;20043;-77
2021/03/14 02:33:58;;;;;;;21.87;2.73;;;5.80;92.20;;;;;;5050502;28;20065;-78
2021/03/14 02:36:28;;;;;;;16.30;2.40;;;5.90;92.10;;;;;;5070050;28;20057;-78
2021/03/14 02:38:54;;;;;;;10.50;1.95;;;5.90;92.10;;;;;;5031098;28;20551;-78
2021/03/14 02:41:21;;;;;;;14.27;2.40;;;5.80;92.10;;;;;;5042493;28;20040;-78
2021/03/14 02:43:49;;;;;;;21.53;2.83;;;5.80;92.10;;;;;;5031697;28;20071;-78
2021/03/14 02:46:16;;;;;;;15.90;2.20;;;5.80;92.30;;;;;;5049694;28;20044;-79
2021/03/14 02:48:42;;;;;;;14.03;2.37;;;5.70;92.30;;;;;;5020145;28;20511;-77
2021/03/14 02:51:09;;;;;;;18.73;3.10;;;5.80;92.30;;;;;;5027672;28;20138;-78
2021/03/14 02:53:38;;;;;;;19.63;2.57;;;5.80;92.20;;;;;;5051022;28;20037;-79
2021/03/14 02:56:05;;;;;;;16.50;3.47;;;5.90;92.20;;;;;;5030197;28;20504;-78
2021/03/14 02:58:32;;;;;;;14.67;2.90;;;5.80;92.10;;;;;;5043405;28;20045;-78
2021/03/14 03:01:01;;;;;;;14.73;2.37;;;5.80;92.30;;;;;;5038617;28;20079;-78
2021/03/14 03:03:27;;;;;;;16.63;3.10;;;5.80;92.30;;;;;;5047116;28;20033;-79
2021/03/14 03:05:57;;;;;;;14.90;2.83;;;5.80;92.30;;;;;;5028989;28;20060;-78
2021/03/14 03:08:25;;;;;;;17.70;3.25;;;5.80;92.30;;;;;;5040880;28;20447;-78
2021/03/14 03:10:52;;;;;;;15.07;2.93;;;5.80;92.40;;;;;;5042511;28;20680;-78
2021/03/14 03:13:19;;;;;;;20.87;2.80;;;5.80;92.30;;;;;;5037514;28;20041;-79
2021/03/14 03:15:46;;;;;;;18.97;3.33;;;5.80;92.40;;;;;;4998920;28;20041;-79
2021/03/14 03:18:14;;;;;;;16.77;2.17;;;5.80;92.40;;;;;;5023299;28;20530;-77
2021/03/14 03:20:41;;;;;;;16.53;3.07;;;5.70;92.50;;;;;;5028286;28;20044;-78
2021/03/14 03:23:07;;;;;;;16.83;3.37;;;5.60;92.50;;;;;;5028067;28;20064;-78
2021/03/14 03:25:38;;;;;;;15.90;4.17;;;5.60;92.60;;;;;;5026558;28;20038;-78
2021/03/14 03:28:05;;;;;;;18.10;2.60;;;5.60;92.60;;;;;;5024888;28;20041;-78
2021/03/14 03:30:33;;;;;;;16.97;3.20;;;5.50;92.70;;;;;;5047879;28;20047;-78
2021/03/14 03:32:59;;;;;;;18.33;4.20;;;5.50;92.70;;;;;;5063951;28;20119;-79
2021/03/14 03:35:26;;;;;;;15.33;3.30;;;5.50;92.80;;;;;;5059849;28;20116;-78
2021/03/14 03:37:52;;;;;;;20.10;3.40;;;5.40;92.80;;;;;;5058865;28;20040;-79
2021/03/14 03:40:23;;;;;;;21.47;3.07;;;5.40;92.90;;;;;;5052984;28;20054;-79
2021/03/14 03:42:54;;;;;;;17.38;3.10;;;5.40;92.80;;;;;;5060447;28;20036;-78
2021/03/14 03:45:21;;;;;;;12.87;2.77;;;5.40;92.90;;;;;;5047982;28;20453;-78
2021/03/14 03:47:48;;;;;;;18.43;4.00;;;5.30;93.00;;;;;;5062584;28;20419;-79
2021/03/14 03:50:16;;;;;;;17.20;3.30;;;5.30;93.00;;;;;;5045004;28;20131;-79
2021/03/14 03:52:47;;;;;;;19.90;3.80;;;5.30;93.10;;;;;;5050882;28;20086;-78
2021/03/14 03:55:16;;;;;;;18.90;3.50;;;5.20;93.10;;;;;;5073328;28;20048;-78
2021/03/14 03:57:43;;;;;;;19.80;3.30;;;5.30;93.30;;;;;;5063249;28;20068;-79
2021/03/14 04:00:16;;;;;;;21.87;3.33;;;5.30;93.30;;;;;;5065411;28;20412;-78
2021/03/14 04:02:44;;;;;;;13.37;3.20;;;5.30;93.30;;;;;;5053554;28;20080;-78
2021/03/14 04:05:11;;;;;;;15.17;2.90;;;5.30;93.30;;;;;;5047918;28;20044;-79
2021/03/14 04:07:39;;;;;;;13.80;3.50;;;5.30;93.30;;;;;;5027636;28;20067;-78
2021/03/14 04:10:08;;;;;;;19.87;3.50;;;5.30;93.30;;;;;;5050364;28;20044;-78
2021/03/14 04:12:36;;;;;;;10.87;2.50;;;5.30;93.30;;;;;;5029983;28;20131;-78
2021/03/14 04:15:06;;;;;;;12.77;3.67;;;5.40;93.30;;;;;;5049655;28;20052;-78
2021/03/14 04:17:33;;;;;;;12.03;2.47;;;5.40;93.20;;;;;;5048458;28;20036;-77
2021/03/14 04:20:00;;;;;;;15.20;2.70;;;5.40;93.10;;;;;;5031979;28;21341;-78
2021/03/14 04:22:27;;;;;;;11.27;2.53;;;5.40;92.90;;;;;;5047661;28;20654;-78
2021/03/14 04:24:55;;;;;;;10.60;2.83;;;5.50;92.70;;;;;;5032851;28;20043;-78
2021/03/14 04:27:26;;;;;;;15.23;2.57;;;5.40;92.60;;;;;;5049107;28;20043;-78
2021/03/14 04:29:54;;;;;;;14.47;2.63;;;5.40;93.00;;;;;;5048793;28;20067;-79
2021/03/14 04:32:22;;;;;;;12.13;2.57;;;5.40;92.70;;;;;;5031202;28;20723;-78
2021/03/14 04:34:53;;;;;;;9.60;2.17;;;5.40;92.60;;;;;;5050875;28;20053;-79
2021/03/14 04:37:20;;;;;;;16.35;2.65;;;5.40;92.50;;;;;;5049513;28;20572;-78
2021/03/14 04:39:47;;;;;;;15.03;2.63;;;5.40;92.70;;;;;;5050341;28;20094;-74
2021/03/14 04:42:13;;;;;;;12.97;2.80;;;5.40;92.80;;;;;;5050156;28;20056;-74
2021/03/14 04:44:42;;;;;;;15.93;3.27;;;5.40;92.80;;;;;;5030286;28;20040;-75
2021/03/14 04:47:08;;;;;;;16.63;3.00;;;5.40;92.90;;;;;;5049832;28;20344;-73
2021/03/14 04:49:34;;;;;;;13.23;3.20;;;5.30;92.90;;;;;;5030244;28;20055;-74
2021/03/14 04:52:02;;;;;;;16.80;3.30;;;5.30;93.00;;;;;;5027206;28;20495;-73
2021/03/14 04:54:31;;;;;;;12.47;2.70;;;5.30;93.10;;;;;;5049899;28;20045;-74
2021/03/14 04:57:01;;;;;;;11.07;2.70;;;5.40;93.10;;;;;;5053783;28;20074;-74
2021/03/14 04:59:29;;;;;;;17.20;2.63;;;5.30;93.10;;;;;;5031106;28;20040;-74
2021/03/14 05:01:55;;;;;;;13.20;2.83;;;5.40;93.30;;;;;;5026927;28;20037;-74
2021/03/14 05:04:22;;;;;;;19.50;3.23;;;5.30;93.30;;;;;;5026984;28;20072;-74
2021/03/14 05:06:50;;;;;;;15.00;2.93;;;5.30;93.40;;;;;;5044988;28;20044;-74
2021/03/14 05:09:16;;;;;;;17.37;2.90;;;5.20;93.50;;;;;;5029016;28;20072;-74
2021/03/14 05:11:47;;;;;;;13.60;2.90;;;5.20;93.60;;;;;;5030729;28;20044;-74
2021/03/14 05:14:14;;;;;;;13.00;3.10;;;5.10;93.80;;;;;;5048279;28;20043;-74
2021/03/14 05:16:41;;;;;;;16.23;2.80;;;5.20;93.90;;;;;;5047775;28;20123;-73
2021/03/14 05:19:08;;;;;;;15.83;3.80;;;5.20;94.00;;;;;;5013398;28;20071;-74
2021/03/14 05:21:36;;;;;;;17.20;3.10;;;5.20;94.10;;;;;;5047253;28;20097;-74
2021/03/14 05:24:03;;;;;;;18.10;3.43;;;5.20;94.20;;;;;;5023138;28;20456;-74
2021/03/14 05:26:32;;;;;;;14.70;3.60;;;5.10;94.20;;;;;;5035790;28;20074;-73
2021/03/14 05:28:58;;;;;;;16.67;3.13;;;5.10;94.40;;;;;;4993099;28;20317;-74
2021/03/14 05:31:29;;;;;;;15.53;3.40;;;5.20;94.50;;;;;;5032658;28;20087;-73
2021/03/14 05:33:56;;;;;;;;;;;5.20;94.60;;;;;;5037260;28;20543;-73
2021/03/14 05:36:24;;;;;;;15.07;3.07;;;5.30;94.50;;;;;;5016791;28;19920;-73
2021/03/14 05:38:50;;;;;;;17.00;3.67;;;5.30;94.40;;;;;;5029650;28;20182;-74
2021/03/14 05:41:16;;;;;;;13.63;3.60;;;5.30;94.30;;;;;;5015123;28;20116;-73
2021/03/14 05:43:43;;;;;;;15.57;3.20;;;5.20;94.20;;;;;;5014617;28;20643;-73
2021/03/14 05:46:10;;;;;;;15.63;3.23;;;5.20;94.20;;;;;;5028821;28;20048;-73
2021/03/14 05:48:37;;;;;;;11.33;3.13;;;5.20;94.10;;;;;;5031839;28;20575;-73
2021/03/14 05:51:03;;;;;;;16.97;3.60;;;5.20;94.10;;;;;;5013162;28;20087;-73
2021/03/14 05:53:31;;;;;;;13.90;3.00;;;5.20;94.10;;;;;;5028252;28;20044;-73
2021/03/14 05:56:00;;;;;;;10.00;3.90;;;5.20;94.10;;;;;;5031049;28;20099;-74
2021/03/14 05:58:26;;;;;;;16.20;3.80;;;5.20;94.10;;;;;;5029252;28;20121;-74
2021/03/14 06:00:52;;;;;;;18.50;3.03;;;5.10;94.10;;;;;;5030372;28;20747;-73
2021/03/14 06:03:20;;;;;;;11.90;3.03;;;5.10;94.10;;;;;;5013526;28;20480;-73
2021/03/14 06:05:46;;;;;;;15.07;3.23;;;5.10;94.10;;;;;;4997232;28;20492;-73
2021/03/14 06:08:15;;;;;;;13.10;3.03;;;5.10;94.10;;;;;;5011747;28;20799;-74
2021/03/14 06:10:41;;;;;;;11.93;2.80;;;5.10;94.10;;;;;;5031882;28;20099;-73
2021/03/14 06:13:07;;;;;;;15.23;3.23;;;5.10;94.10;;;;;;5013676;28;20517;-74
2021/03/14 06:15:33;;;;;;;14.27;3.17;;;5.00;94.00;;;;;;5013876;28;20056;-73
2021/03/14 06:18:00;;;;;;;12.30;2.73;;;5.00;94.00;;;;;;5015753;28;20124;-73
2021/03/14 06:20:53;;;;;;;10.07;3.03;;;5.00;94.00;;;;;;5031862;28;20048;-74
2021/03/14 06:23:23;;;;;;;14.73;2.70;;;5.00;94.10;;;;;;5032705;28;20668;-74
2021/03/14 06:25:56;;;;;;;14.87;2.67;;;5.00;94.10;;;;;;5029763;28;20068;-73
2021/03/14 06:28:51;;;;;;;15.00;3.10;;;5.00;94.10;;;;;;5017697;28;20060;-73
2021/03/14 06:31:22;;;;;;;10.77;2.93;;;5.00;94.10;;;;;;5012326;28;20061;-73
2021/03/14 06:33:49;;;;;;;10.80;2.73;;;5.00;94.20;;;;;;5030954;28;20542;-74
2021/03/14 06:36:22;;;;;;;10.80;2.80;;;5.00;94.20;;;;;;5026715;28;20102;-74
2021/03/14 06:38:49;;;;;;;12.40;2.87;;;4.90;94.30;;;;;;5032060;28;21753;-73
2021/03/14 06:41:20;;;;;;;15.80;3.10;;;5.00;94.30;;;;;;5026935;28;20049;-74
2021/03/14 06:43:50;;;;;;;;;;;5.00;94.20;;;;;;5032023;28;20079;-74
2021/03/14 06:46:31;;;;;;;12.10;2.53;;;5.10;94.20;;;;;;5029236;28;19928;-74
2021/03/14 06:49:25;;;;;;;12.63;2.87;;;5.00;94.10;;;;;;5031931;28;20124;-73
2021/03/14 06:51:56;;;;;;;14.57;2.63;;;5.10;94.00;;;;;;5008667;28;20079;-73
2021/03/14 06:54:29;;;;;;;;;;;5.10;93.90;;;;;;5030450;28;20037;-74
2021/03/14 06:57:08;;;;;;;10.60;2.50;;;5.10;93.80;;;;;;5030018;28;19939;-74
2021/03/14 06:59:35;;;;;;;9.67;2.30;;;5.10;93.80;;;;;;5030195;28;20051;-73
2021/03/14 07:02:03;;;;;;;6.23;2.37;;;5.20;93.80;;;;;;5030250;28;20041;-74
2021/03/14 07:04:34;;;;;;;7.47;2.97;;;5.20;93.80;;;;;;5030966;28;20044;-73
2021/03/14 07:07:00;;;;;;;13.17;2.57;;;5.20;93.80;;;;;;5048265;28;20048;-73
2021/03/14 07:09:27;;;;;;;10.37;2.63;;;5.20;93.80;;;;;;5030122;28;20049;-73
2021/03/14 07:11:53;;;;;;;8.60;2.07;;;5.20;94.00;;;;;;5030462;28;20041;-73
2021/03/14 07:14:20;;;;;;;13.40;2.80;;;5.20;93.70;;;;;;5044450;28;20045;-73
2021/03/14 07:17:00;;;;;;;8.15;2.03;;;5.30;93.80;;;;;;5029362;28;20049;-74
2021/03/14 07:19:28;;;;;;;8.60;2.50;;;5.30;93.80;;;;;;5025179;28;20053;-74
2021/03/14 07:21:57;;;;;;;11.27;2.13;;;5.50;93.80;;;;;;5032181;28;20037;-74
2021/03/14 07:24:41;;;;;;;12.57;2.70;;;5.50;93.90;;;;;;5027645;28;20120;-73
2021/03/14 07:27:11;;;;;;;11.57;2.43;;;5.60;93.70;;;;;;5030877;28;20087;-74
2021/03/14 07:29:38;;;;;;;;;;;5.60;93.60;;;;;;5041962;28;20063;-74
2021/03/14 07:32:07;;;;;;;10.40;2.40;;;5.80;93.60;;;;;;5030444;28;20675;-74
2021/03/14 07:34:36;;;;;;;8.53;2.30;;;5.80;93.50;;;;;;5028558;28;20036;-74
2021/03/14 07:37:03;;;;;;;11.53;2.83;;;6.00;93.50;;;;;;5028956;28;20640;-74
2021/03/14 07:39:33;;;;;;;12.40;2.97;;;6.00;93.10;;;;;;5030692;28;20039;-74
2021/03/14 07:42:03;;;;;;;9.43;2.37;;;6.10;93.20;;;;;;5032048;28;20036;-74
2021/03/14 07:44:29;;;;;;;14.05;2.53;;;6.20;93.20;;;;;;5011160;28;20443;-74
2021/03/14 07:46:56;;;;;;;8.60;2.13;;;6.30;92.90;;;;;;5012633;28;20116;-74
2021/03/14 07:49:24;;;;;;;11.93;2.60;;;6.30;92.80;;;;;;5031227;28;20044;-74
2021/03/14 07:51:54;;;;;;;13.33;3.30;;;6.40;92.80;;;;;;5030931;28;20037;-74
2021/03/14 07:54:37;;;;;;;12.60;2.50;;;6.50;92.50;;;;;;5031221;28;20064;-74
2021/03/14 07:57:07;;;;;;;9.03;2.10;;;6.60;92.70;;;;;;5030680;28;20613;-74
2021/03/14 07:59:34;;;;;;;14.38;2.85;;;6.80;92.80;;;;;;5031705;28;20037;-73
2021/03/14 08:02:24;;;;;;;10.87;2.20;;;6.70;92.70;;;;;;5025949;28;20083;-73
2021/03/14 08:04:55;;;;;;;12.80;2.65;;;6.80;92.20;;;;;;5031226;28;20045;-73
2021/03/14 08:07:33;;;;;;;11.43;2.90;;;6.90;92.20;;;;;;5025545;28;20044;-74
2021/03/14 08:10:09;;;;;;;17.97;3.20;;;6.90;92.10;;;;;;5046260;28;20123;-73
2021/03/14 08:12:41;;;;;;;17.10;3.50;;;6.90;92.10;;;;;;5041682;28;20040;-73
2021/03/14 08:15:28;;;;;;;13.03;2.77;;;7.00;92.10;;;;;;5030876;28;20097;-74
2021/03/14 08:17:58;;;;;;;11.27;3.90;;;7.20;92.10;;;;;;5024052;28;20043;-74
2021/03/14 08:20:42;;;;;;;13.27;3.67;;;7.30;91.70;;;;;;5060997;28;20049;-73
2021/03/14 08:23:10;;;;;;;9.67;2.17;;;7.30;91.50;;;;;;5027578;28;20037;-74
2021/03/14 08:25:44;;;;;;;13.90;3.50;;;7.20;91.30;;;;;;5011337;28;20041;-73
2021/03/14 08:28:22;;;;;;;12.40;3.03;;;7.10;91.50;;;;;;5044638;28;20392;-74
2021/03/14 08:30:57;;;;;;;10.63;3.27;;;7.20;91.40;;;;;;5038133;28;20047;-75
2021/03/14 08:33:49;;;;;;;12.67;3.47;;;7.20;91.90;;;;;;5025706;28;20044;-74
2021/03/14 08:36:29;;;;;;;12.43;2.90;;;7.20;91.80;;;;;;5019871;28;20095;-74
2021/03/14 08:38:55;;;;;;;16.90;3.28;;;7.50;91.80;;;;;;5038969;28;20064;-74
2021/03/14 08:41:35;;;;;;;17.70;3.60;;;7.40;91.20;;;;;;5022487;28;20116;-74
2021/03/14 08:44:03;;;;;;;10.90;3.47;;;7.50;91.30;;;;;;5027308;28;20044;-73
2021/03/14 08:46:48;;;;;;;16.37;4.53;;;7.30;90.80;;;;;;5022444;28;20566;-74
2021/03/14 08:49:21;;;;;;;9.03;3.50;;;7.40;91.10;;;;;;5021209;28;20044;-74
2021/03/14 08:51:48;;;;;;;16.23;3.83;;;7.30;91.70;;;;;;5041140;28;20075;-74
2021/03/14 08:54:23;;;;;;;12.23;3.07;;;7.40;91.70;;;;;;5023485;28;20040;-73
2021/03/14 08:56:54;;;;;;;14.00;3.63;;;7.40;91.50;;;;;;5038531;28;20050;-74
2021/03/14 08:59:24;;;;;;;13.87;3.00;;;7.40;91.20;;;;;;5029754;28;20414;-74
2021/03/14 09:01:59;;;;;;;13.93;3.43;;;7.40;91.10;;;;;;5043922;28;20068;-74
2021/03/14 09:04:35;;;;;;;12.13;3.00;;;7.40;91.00;;;;;;5045545;28;20570;-74
2021/03/14 09:07:09;;;;;;;8.53;3.07;;;7.50;90.60;;;;;;5027127;28;20036;-74
2021/03/14 09:09:37;;;;;;;13.03;2.60;;;7.50;90.40;;;;;;5045943;28;20484;-74
2021/03/14 09:12:11;;;;;;;15.33;3.80;;;7.50;90.10;;;;;;5043545;28;20057;-74
2021/03/14 09:14:40;;;;;;;12.57;3.23;;;7.70;90.00;;;;;;5030710;28;20395;-74
2021/03/14 09:17:07;;;;;;;12.53;2.80;;;7.80;89.30;;;;;;5031221;28;20047;-74
2021/03/14 09:19:41;;;;;;;9.97;2.23;;;7.70;88.10;;;;;;5029655;28;20084;-74
2021/03/14 09:22:24;;;;;;;9.23;2.37;;;7.60;86.80;;;;;;5047257;28;20077;-73
2021/03/14 09:25:05;;;;;;;9.70;2.70;;;7.50;88.10;;;;;;5046890;28;20097;-73
2021/03/14 09:27:36;;;;;;;13.77;2.50;;;7.70;89.00;;;;;;5044395;28;20174;-74
2021/03/14 09:30:08;;;;;;;;;;;7.90;87.60;;;;;;5029930;28;20083;-74
2021/03/14 09:32:42;;;;;;;11.60;2.07;;;8.20;87.20;;;;;;5027803;28;19928;-74
2021/03/14 09:35:13;;;;;;;10.97;2.10;;;8.30;86.50;;;;;;5029464;28;20439;-74
2021/03/14 09:37:41;;;;;;;12.23;2.60;;;8.40;86.50;;;;;;5042900;28;20049;-74
2021/03/14 09:40:16;;;;;;;11.33;1.90;;;8.50;87.50;;;;;;5048729;28;20119;-74
2021/03/14 09:42:45;;;;;;;16.20;2.70;;;8.60;85.70;;;;;;5046940;28;20043;-74
2021/03/14 09:45:17;;;;;;;12.50;3.00;;;8.50;86.10;;;;;;5047057;28;20582;-74
2021/03/14 09:48:02;;;;;;;9.83;2.20;;;8.40;85.60;;;;;;5028602;28;20048;-74
2021/03/14 09:50:37;;;;;;;14.03;2.83;;;8.30;84.90;;;;;;5044416;28;20033;-74
2021/03/14 09:53:05;;;;;;;14.83;2.80;;;8.10;86.20;;;;;;5042839;28;20119;-79
2021/03/14 09:55:46;;;;;;;12.00;1.90;;;8.30;86.60;;;;;;5044025;28;20045;-78
2021/03/14 09:58:15;;;;;;;7.57;2.20;;;8.50;85.90;;;;;;5043753;28;21224;-78
2021/03/14 10:00:43;;;;;;;8.63;1.63;;;8.70;85.70;;;;;;5044384;28;20069;-78
2021/03/14 10:03:14;;;;;;;10.13;2.60;;;8.70;84.40;;;;;;5046981;28;20056;-79
2021/03/14 10:05:50;;;;;;;7.63;1.97;;;8.90;83.50;;;;;;5045275;28;20068;-78
2021/03/14 10:08:26;;;;;;;7.33;1.77;;;9.00;83.50;;;;;;5028862;28;20041;-77
2021/03/14 10:10:56;;;;;;;12.97;2.37;;;9.00;82.20;;;;;;5026167;28;20044;-78
2021/03/14 10:13:25;;;;;;;11.07;2.10;;;8.90;83.40;;;;;;5040398;28;20047;-78
2021/03/14 10:15:53;;;;;;;6.70;1.50;;;8.60;83.60;;;;;;5028945;28;20045;-78
2021/03/14 10:18:22;;;;;;;6.80;1.63;;;8.30;84.20;;;;;;5028793;28;20044;-78
2021/03/14 10:20:51;;;;;;;10.03;1.90;;;8.20;84.20;;;;;;5019406;28;20037;-78
2021/03/14 10:23:24;;;;;;;7.32;1.70;;;8.20;86.10;;;;;;5044795;28;20039;-77
2021/03/14 10:25:51;;;;;;;5.83;1.50;;;8.40;85.20;;;;;;5026495;28;20105;-78
2021/03/14 10:28:19;;;;;;;7.93;1.43;;;8.70;86.30;;;;;;5045279;28;20053;-77
2021/03/14 10:30:47;;;;;;;6.67;1.37;;;8.80;83.90;;;;;;5065023;28;20032;-77
2021/03/14 10:33:16;;;;;;;6.13;1.90;;;9.00;85.10;;;;;;5061915;28;20376;-78
2021/03/14 10:35:44;;;;;;;5.57;1.30;;;9.10;83.90;;;;;;5066790;28;20040;-78
2021/03/14 10:38:28;;;;;;;8.53;2.37;;;9.20;84.30;;;;;;5044015;28;20598;-77
2021/03/14 10:41:08;;;;;;;6.77;1.50;;;9.20;84.20;;;;;;5066789;28;20565;-79
2021/03/14 10:43:42;;;;;;;;;;;9.10;83.10;;;;;;5050582;28;20037;-77
2021/03/14 10:46:08;;;;;;;6.10;1.50;;;9.10;84.30;;;;;;5078957;28;20342;-77
2021/03/14 10:48:34;;;;;;;10.17;1.93;;;9.10;84.00;;;;;;5046022;28;20447;-78
2021/03/14 10:51:05;;;;;;;5.60;1.50;;;9.00;83.00;;;;;;5047369;28;20547;-77
2021/03/14 10:53:32;;;;;;;9.60;1.80;;;8.90;82.40;;;;;;5044236;28;20047;-76
2021/03/14 10:56:04;;;;;;;10.43;2.03;;;8.70;83.50;;;;;;5026952;28;20033;-78
2021/03/14 10:58:42;;;;;;;9.60;1.80;;;8.80;84.30;;;;;;5058989;28;20067;-80
2021/03/14 11:01:18;;;;;;;8.97;2.10;;;8.80;84.50;;;;;;5059612;28;20055;-78
2021/03/14 11:03:45;;;;;;;9.77;2.30;;;8.80;85.00;;;;;;5046201;28;20041;-77
2021/03/14 11:06:12;;;;;;;11.67;2.03;;;8.80;82.50;;;;;;5055705;28;20075;-78
2021/03/14 11:08:52;;;;;;;10.97;2.60;;;8.80;83.10;;;;;;5057049;28;20036;-78
2021/03/14 11:11:26;;;;;;;10.25;2.10;;;8.70;84.40;;;;;;5042931;28;20047;-79
2021/03/14 11:13:52;;;;;;;7.03;1.80;;;8.50;85.00;;;;;;5048916;28;20498;-79
2021/03/14 11:16:25;;;;;;;5.87;1.03;;;8.60;85.90;;;;;;5049602;28;20098;-78
2021/03/14 11:19:04;;;;;;;6.53;1.17;;;8.90;82.90;;;;;;5045877;28;20450;-79
2021/03/14 11:21:30;;;;;;;3.93;0.77;;;9.10;81.50;;;;;;5063925;28;20040;-79
2021/03/14 11:23:56;;;;;;;3.80;0.80;;;9.20;79.50;;;;;;5027858;28;20047;-79
2021/03/14 11:26:22;;;;;;;3.43;0.97;;;9.40;81.00;;;;;;5065011;28;20037;-79
2021/03/14 11:28:51;;;;;;;6.00;1.20;;;9.50;77.80;;;;;;5046877;28;20052;-78
2021/03/14 11:31:17;;;;;;;7.43;1.10;;;9.40;75.00;;;;;;5053012;28;20087;-79
2021/03/14 11:33:43;;;;;;;4.77;1.17;;;9.40;76.30;;;;;;5012758;28;20495;-79
2021/03/14 11:36:09;;;;;;;2.27;0.50;;;9.40;75.70;;;;;;5044557;28;20041;-79
2021/03/14 11:38:34;;;;;;;5.07;1.10;;;9.50;76.40;;;;;;5063605;28;20891;-79
2021/03/14 11:41:00;;;;;;;7.23;1.20;;;9.60;75.40;;;;;;5034324;28;20036;-79
2021/03/14 11:43:27;;;;;;;7.70;1.40;;;9.70;73.30;;;;;;5040402;28;20692;-80
2021/03/14 11:45:53;;;;;;;6.03;1.00;;;9.80;75.20;;;;;;5047616;28;20111;-78
2021/03/14 11:48:19;;;;;;;5.10;1.50;;;9.90;75.70;;;;;;5067668;28;20223;-77
2021/03/14 11:50:45;;;;;;;3.97;1.07;;;9.90;72.10;;;;;;5046353;28;20203;-79
2021/03/14 11:53:11;;;;;;;3.80;1.37;;;9.80;73.30;;;;;;5046763;28;20064;-79
2021/03/14 11:55:37;;;;;;;5.10;1.00;;;9.90;72.30;;;;;;5063887;28;20156;-78
2021/03/14 11:58:03;;;;;;;8.80;1.50;;;9.90;72.00;;;;;;5046874;28;20043;-78
2021/03/14 12:00:32;;;;;;;4.20;1.17;;;9.90;73.80;;;;;;5065327;28;20098;-78
2021/03/14 12:02:58;;;;;;;5.80;1.00;;;10.00;71.20;;;;;;5063422;28;20040;-79
2021/03/14 12:05:24;;;;;;;9.03;1.60;;;9.90;72.90;;;;;;5064945;28;20047;-78
2021/03/14 12:07:50;;;;;;;7.33;2.07;;;10.00;73.20;;;;;;5031627;28;20048;-78
2021/03/14 12:10:16;;;;;;;9.20;1.50;;;10.00;75.70;;;;;;5045610;28;20036;-78
2021/03/14 12:12:42;;;;;;;3.83;0.77;;;10.00;74.50;;;;;;5045956;28;20040;-80
2021/03/14 12:15:09;;;;;;;7.03;1.20;;;10.10;73.50;;;;;;5032599;28;20036;-79
2021/03/14 12:17:35;;;;;;;8.30;2.17;;;10.20;71.40;;;;;;5060203;28;20037;-80
2021/03/14 12:20:01;;;;;;;6.87;1.20;;;10.40;75.50;;;;;;5048850;28;20067;-79
2021/03/14 12:22:28;;;;;;;5.50;1.10;;;10.60;75.30;;;;;;5046227;28;20113;-79
2021/03/14 12:24:54;;;;;;;10.97;1.60;;;10.60;74.90;;;;;;5044041;28;20040;-80
2021/03/14 12:27:20;;;;;;;8.57;1.57;;;10.70;75.70;;;;;;5045668;28;20097;-79
2021/03/14 12:29:46;;;;;;;8.70;1.97;;;10.80;76.50;;;;;;5058624;28;20051;-80
2021/03/14 12:32:13;;;;;;;8.07;1.00;;;10.90;75.10;;;;;;5062095;28;20071;-78
2021/03/14 12:34:42;;;;;;;8.05;1.42;;;11.00;74.00;;;;;;5061943;28;20060;-80
2021/03/14 12:37:09;;;;;;;5.83;1.50;;;11.00;70.10;;;;;;5066458;28;20938;-80
2021/03/14 12:39:38;;;;;;;11.60;1.33;;;10.90;70.60;;;;;;5060006;28;20044;-80
2021/03/14 12:42:04;;;;;;;9.97;1.70;;;11.00;70.40;;;;;;5061043;28;20119;-80
2021/03/14 12:44:30;;;;;;;5.20;1.17;;;10.90;69.70;;;;;;5066926;28;20124;-80
2021/03/14 12:46:56;;;;;;;7.33;1.00;;;11.00;71.60;;;;;;5042032;28;20028;-79
2021/03/14 12:49:22;;;;;;;6.47;0.90;;;11.10;67.20;;;;;;5016604;28;20115;-80
2021/03/14 12:51:48;;;;;;;6.37;1.00;;;10.80;66.00;;;;;;5066444;28;20029;-81
2021/03/14 12:54:14;;;;;;;7.77;1.30;;;10.30;66.50;;;;;;5024522;28;20482;-79
2021/03/14 12:56:40;;;;;;;9.03;1.30;;;10.20;70.30;;;;;;5046984;28;20098;-79
2021/03/14 12:59:06;;;;;;;6.13;1.27;;;10.20;69.00;;;;;;5022372;28;20044;-80
2021/03/14 13:01:32;;;;;;;9.27;1.10;;;10.30;69.20;;;;;;5065051;28;20067;-80